sensor_id;sensor_type;location;lat;lon;timestamp;P1;durP1;ratioP1;P2;durP2;ratioP2
24216;SDS011;12356;49.386;8.688;2024-01-16T00:00:50;15.70;;;6.97;;
24216;SDS011;12356;49.386;8.688;2024-01-16T00:03:21;13.63;;;7.07;;
24216;SDS011;12356;49.386;8.688;2024-01-16T00:05:51;12.77;;;6.78;;
24216;SDS011;12356;49.386;8.688;2024-01-16T00:08:22;12.60;;;6.60;;
24216;SDS011;12356;49.386;8.688;2024-01-16T00:10:53;14.02;;;6.80;;
24216;SDS011;12356;49.386;8.688;2024-01-16T00:13:23;13.90;;;6.97;;
24216;SDS011;12356;49.386;8.688;2024-01-16T00:15:54;13.88;;;6.88;;
24216;SDS011;12356;49.386;8.688;2024-01-16T00:18:26;15.13;;;7.75;;
24216;SDS011;12356;49.386;8.688;2024-01-16T00:20:57;17.13;;;6.88;;
24216;SDS011;12356;49.386;8.688;2024-01-16T00:23:28;18.52;;;7.70;;
24216;SDS011;12356;49.386;8.688;2024-01-16T00:25:58;13.85;;;7.38;;
24216;SDS011;12356;49.386;8.688;2024-01-16T00:28:30;14.73;;;7.22;;
24216;SDS011;12356;49.386;8.688;2024-01-16T00:33:37;15.75;;;6.82;;
24216;SDS011;12356;49.386;8.688;2024-01-16T00:36:08;13.68;;;7.07;;
24216;SDS011;12356;49.386;8.688;2024-01-16T00:38:39;15.43;;;6.90;;
24216;SDS011;12356;49.386;8.688;2024-01-16T00:41:09;14.77;;;7.10;;
24216;SDS011;12356;49.386;8.688;2024-01-16T00:43:40;19.15;;;7.35;;
24216;SDS011;12356;49.386;8.688;2024-01-16T00:46:11;13.43;;;6.88;;
24216;SDS011;12356;49.386;8.688;2024-01-16T00:48:42;16.85;;;7.22;;
24216;SDS011;12356;49.386;8.688;2024-01-16T00:51:13;13.63;;;6.55;;
24216;SDS011;12356;49.386;8.688;2024-01-16T00:53:43;15.88;;;6.63;;
24216;SDS011;12356;49.386;8.688;2024-01-16T00:56:14;14.13;;;7.00;;
24216;SDS011;12356;49.386;8.688;2024-01-16T00:58:44;13.25;;;7.03;;
24216;SDS011;12356;49.386;8.688;2024-01-16T01:01:15;14.38;;;6.90;;
24216;SDS011;12356;49.386;8.688;2024-01-16T01:03:45;15.13;;;7.22;;
24216;SDS011;12356;49.386;8.688;2024-01-16T01:06:16;16.67;;;6.85;;
24216;SDS011;12356;49.386;8.688;2024-01-16T01:08:47;15.63;;;6.72;;
24216;SDS011;12356;49.386;8.688;2024-01-16T01:11:17;12.88;;;6.63;;
24216;SDS011;12356;49.386;8.688;2024-01-16T01:13:48;15.68;;;7.10;;
24216;SDS011;12356;49.386;8.688;2024-01-16T01:16:18;14.82;;;7.10;;
24216;SDS011;12356;49.386;8.688;2024-01-16T01:18:49;17.33;;;7.10;;
24216;SDS011;12356;49.386;8.688;2024-01-16T01:21:19;12.82;;;6.90;;
24216;SDS011;12356;49.386;8.688;2024-01-16T01:23:50;13.35;;;6.65;;
24216;SDS011;12356;49.386;8.688;2024-01-16T01:26:21;15.13;;;6.93;;
24216;SDS011;12356;49.386;8.688;2024-01-16T01:28:54;13.05;;;6.07;;
24216;SDS011;12356;49.386;8.688;2024-01-16T01:31:24;13.88;;;6.85;;
24216;SDS011;12356;49.386;8.688;2024-01-16T01:33:55;16.10;;;6.75;;
24216;SDS011;12356;49.386;8.688;2024-01-16T01:36:26;12.50;;;6.82;;
24216;SDS011;12356;49.386;8.688;2024-01-16T01:38:57;13.63;;;5.32;;
24216;SDS011;12356;49.386;8.688;2024-01-16T01:41:28;13.90;;;7.00;;
24216;SDS011;12356;49.386;8.688;2024-01-16T01:43:58;16.35;;;6.93;;
24216;SDS011;12356;49.386;8.688;2024-01-16T01:46:29;12.48;;;7.03;;
24216;SDS011;12356;49.386;8.688;2024-01-16T01:49:02;14.38;;;7.00;;
24216;SDS011;12356;49.386;8.688;2024-01-16T01:51:33;14.73;;;6.53;;
24216;SDS011;12356;49.386;8.688;2024-01-16T01:54:04;12.48;;;6.25;;
24216;SDS011;12356;49.386;8.688;2024-01-16T01:56:34;14.98;;;6.93;;
24216;SDS011;12356;49.386;8.688;2024-01-16T01:59:05;12.40;;;6.28;;
24216;SDS011;12356;49.386;8.688;2024-01-16T02:01:37;14.20;;;6.90;;
24216;SDS011;12356;49.386;8.688;2024-01-16T02:04:08;14.25;;;7.28;;
24216;SDS011;12356;49.386;8.688;2024-01-16T02:06:39;13.15;;;6.60;;
24216;SDS011;12356;49.386;8.688;2024-01-16T02:09:09;14.32;;;7.00;;
24216;SDS011;12356;49.386;8.688;2024-01-16T02:11:43;12.48;;;6.75;;
24216;SDS011;12356;49.386;8.688;2024-01-16T02:14:13;16.88;;;7.40;;
24216;SDS011;12356;49.386;8.688;2024-01-16T02:16:44;13.63;;;7.07;;
24216;SDS011;12356;49.386;8.688;2024-01-16T02:19:15;15.02;;;7.22;;
24216;SDS011;12356;49.386;8.688;2024-01-16T02:21:49;15.80;;;7.05;;
24216;SDS011;12356;49.386;8.688;2024-01-16T02:24:21;13.90;;;6.82;;
24216;SDS011;12356;49.386;8.688;2024-01-16T02:26:51;14.25;;;7.35;;
24216;SDS011;12356;49.386;8.688;2024-01-16T02:29:23;18.65;;;7.40;;
24216;SDS011;12356;49.386;8.688;2024-01-16T02:31:53;15.02;;;7.15;;
24216;SDS011;12356;49.386;8.688;2024-01-16T02:34:24;15.65;;;7.03;;
24216;SDS011;12356;49.386;8.688;2024-01-16T02:36:54;17.33;;;7.35;;
24216;SDS011;12356;49.386;8.688;2024-01-16T02:39:25;14.48;;;6.97;;
24216;SDS011;12356;49.386;8.688;2024-01-16T02:41:55;17.85;;;6.97;;
24216;SDS011;12356;49.386;8.688;2024-01-16T02:44:26;16.83;;;7.35;;
24216;SDS011;12356;49.386;8.688;2024-01-16T02:46:57;15.55;;;6.97;;
24216;SDS011;12356;49.386;8.688;2024-01-16T02:49:27;13.40;;;6.90;;
24216;SDS011;12356;49.386;8.688;2024-01-16T02:51:58;14.88;;;7.20;;
24216;SDS011;12356;49.386;8.688;2024-01-16T02:54:28;13.98;;;7.05;;
24216;SDS011;12356;49.386;8.688;2024-01-16T02:56:59;15.57;;;7.05;;
24216;SDS011;12356;49.386;8.688;2024-01-16T02:59:29;14.60;;;7.38;;
24216;SDS011;12356;49.386;8.688;2024-01-16T03:02:00;16.30;;;7.55;;
24216;SDS011;12356;49.386;8.688;2024-01-16T03:04:31;14.95;;;6.93;;
24216;SDS011;12356;49.386;8.688;2024-01-16T03:07:01;16.23;;;7.47;;
24216;SDS011;12356;49.386;8.688;2024-01-16T03:09:32;15.68;;;7.55;;
24216;SDS011;12356;49.386;8.688;2024-01-16T03:12:02;15.93;;;7.22;;
24216;SDS011;12356;49.386;8.688;2024-01-16T03:14:33;18.48;;;7.20;;
24216;SDS011;12356;49.386;8.688;2024-01-16T03:17:06;14.35;;;7.30;;
24216;SDS011;12356;49.386;8.688;2024-01-16T03:19:37;13.65;;;6.85;;
24216;SDS011;12356;49.386;8.688;2024-01-16T03:22:07;12.88;;;7.03;;
24216;SDS011;12356;49.386;8.688;2024-01-16T03:24:38;15.25;;;7.38;;
24216;SDS011;12356;49.386;8.688;2024-01-16T03:27:08;17.08;;;7.55;;
24216;SDS011;12356;49.386;8.688;2024-01-16T03:29:39;15.98;;;7.00;;
24216;SDS011;12356;49.386;8.688;2024-01-16T03:32:09;13.57;;;6.78;;
24216;SDS011;12356;49.386;8.688;2024-01-16T03:34:40;16.52;;;7.70;;
24216;SDS011;12356;49.386;8.688;2024-01-16T03:37:10;14.38;;;7.38;;
24216;SDS011;12356;49.386;8.688;2024-01-16T03:39:41;15.43;;;7.07;;
24216;SDS011;12356;49.386;8.688;2024-01-16T03:42:11;14.35;;;7.40;;
24216;SDS011;12356;49.386;8.688;2024-01-16T03:44:43;13.15;;;6.70;;
24216;SDS011;12356;49.386;8.688;2024-01-16T03:47:13;17.30;;;7.43;;
24216;SDS011;12356;49.386;8.688;2024-01-16T03:49:44;18.45;;;7.20;;
24216;SDS011;12356;49.386;8.688;2024-01-16T03:52:14;15.10;;;7.43;;
24216;SDS011;12356;49.386;8.688;2024-01-16T03:54:45;15.20;;;7.00;;
24216;SDS011;12356;49.386;8.688;2024-01-16T03:57:15;16.70;;;7.40;;
24216;SDS011;12356;49.386;8.688;2024-01-16T03:59:46;17.85;;;7.43;;
24216;SDS011;12356;49.386;8.688;2024-01-16T04:02:16;13.82;;;7.13;;
24216;SDS011;12356;49.386;8.688;2024-01-16T04:04:47;13.35;;;7.13;;
24216;SDS011;12356;49.386;8.688;2024-01-16T04:07:17;15.35;;;7.20;;
24216;SDS011;12356;49.386;8.688;2024-01-16T04:09:48;19.88;;;7.35;;
24216;SDS011;12356;49.386;8.688;2024-01-16T04:12:18;14.63;;;6.93;;
24216;SDS011;12356;49.386;8.688;2024-01-16T04:14:49;17.17;;;7.50;;
24216;SDS011;12356;49.386;8.688;2024-01-16T04:17:19;13.95;;;6.80;;
24216;SDS011;12356;49.386;8.688;2024-01-16T04:19:50;13.98;;;6.60;;
24216;SDS011;12356;49.386;8.688;2024-01-16T04:22:21;16.35;;;7.28;;
24216;SDS011;12356;49.386;8.688;2024-01-16T04:24:51;18.70;;;7.30;;
24216;SDS011;12356;49.386;8.688;2024-01-16T04:27:22;15.45;;;7.10;;
24216;SDS011;12356;49.386;8.688;2024-01-16T04:29:53;14.10;;;7.00;;
24216;SDS011;12356;49.386;8.688;2024-01-16T04:32:23;14.48;;;6.75;;
24216;SDS011;12356;49.386;8.688;2024-01-16T04:34:54;16.40;;;7.20;;
24216;SDS011;12356;49.386;8.688;2024-01-16T04:37:24;15.50;;;7.25;;
24216;SDS011;12356;49.386;8.688;2024-01-16T04:39:55;15.27;;;7.00;;
24216;SDS011;12356;49.386;8.688;2024-01-16T04:42:27;14.90;;;7.43;;
24216;SDS011;12356;49.386;8.688;2024-01-16T04:44:58;15.73;;;7.25;;
24216;SDS011;12356;49.386;8.688;2024-01-16T04:47:28;14.82;;;7.05;;
24216;SDS011;12356;49.386;8.688;2024-01-16T04:49:59;12.82;;;6.68;;
24216;SDS011;12356;49.386;8.688;2024-01-16T04:52:29;15.00;;;7.18;;
24216;SDS011;12356;49.386;8.688;2024-01-16T04:55:00;16.10;;;7.20;;
24216;SDS011;12356;49.386;8.688;2024-01-16T04:57:30;16.73;;;7.00;;
24216;SDS011;12356;49.386;8.688;2024-01-16T05:00:01;14.15;;;6.80;;
24216;SDS011;12356;49.386;8.688;2024-01-16T05:02:36;13.65;;;6.75;;
24216;SDS011;12356;49.386;8.688;2024-01-16T05:05:07;16.25;;;6.82;;
24216;SDS011;12356;49.386;8.688;2024-01-16T05:07:38;15.35;;;6.80;;
24216;SDS011;12356;49.386;8.688;2024-01-16T05:10:12;16.80;;;7.22;;
24216;SDS011;12356;49.386;8.688;2024-01-16T05:12:42;14.73;;;7.20;;
24216;SDS011;12356;49.386;8.688;2024-01-16T05:15:13;13.02;;;6.60;;
24216;SDS011;12356;49.386;8.688;2024-01-16T05:17:44;14.55;;;6.70;;
24216;SDS011;12356;49.386;8.688;2024-01-16T05:20:15;14.15;;;6.68;;
24216;SDS011;12356;49.386;8.688;2024-01-16T05:22:46;15.35;;;6.75;;
24216;SDS011;12356;49.386;8.688;2024-01-16T05:25:16;15.65;;;6.78;;
24216;SDS011;12356;49.386;8.688;2024-01-16T05:27:47;14.07;;;6.65;;
24216;SDS011;12356;49.386;8.688;2024-01-16T05:30:19;16.33;;;6.50;;
24216;SDS011;12356;49.386;8.688;2024-01-16T05:32:50;15.10;;;7.00;;
24216;SDS011;12356;49.386;8.688;2024-01-16T05:35:22;16.23;;;7.07;;
24216;SDS011;12356;49.386;8.688;2024-01-16T05:37:52;12.70;;;6.78;;
24216;SDS011;12356;49.386;8.688;2024-01-16T05:40:23;15.52;;;6.90;;
24216;SDS011;12356;49.386;8.688;2024-01-16T05:42:54;14.27;;;7.15;;
24216;SDS011;12356;49.386;8.688;2024-01-16T05:45:25;16.73;;;7.13;;
24216;SDS011;12356;49.386;8.688;2024-01-16T05:47:56;17.35;;;7.30;;
24216;SDS011;12356;49.386;8.688;2024-01-16T05:50:26;13.02;;;6.47;;
24216;SDS011;12356;49.386;8.688;2024-01-16T05:52:57;14.77;;;7.20;;
24216;SDS011;12356;49.386;8.688;2024-01-16T05:55:28;15.82;;;6.93;;
24216;SDS011;12356;49.386;8.688;2024-01-16T05:57:59;13.40;;;7.10;;
24216;SDS011;12356;49.386;8.688;2024-01-16T06:00:29;13.70;;;7.18;;
24216;SDS011;12356;49.386;8.688;2024-01-16T06:03:00;18.90;;;7.70;;
24216;SDS011;12356;49.386;8.688;2024-01-16T06:05:31;16.73;;;7.43;;
24216;SDS011;12356;49.386;8.688;2024-01-16T06:08:01;18.98;;;7.20;;
24216;SDS011;12356;49.386;8.688;2024-01-16T06:10:32;16.35;;;7.30;;
24216;SDS011;12356;49.386;8.688;2024-01-16T06:13:03;15.32;;;6.93;;
24216;SDS011;12356;49.386;8.688;2024-01-16T06:15:33;17.05;;;7.88;;
24216;SDS011;12356;49.386;8.688;2024-01-16T06:18:04;15.13;;;7.68;;
24216;SDS011;12356;49.386;8.688;2024-01-16T06:20:35;14.27;;;7.50;;
24216;SDS011;12356;49.386;8.688;2024-01-16T06:23:05;16.55;;;8.00;;
24216;SDS011;12356;49.386;8.688;2024-01-16T06:25:36;16.80;;;7.60;;
24216;SDS011;12356;49.386;8.688;2024-01-16T06:28:07;19.88;;;7.38;;
24216;SDS011;12356;49.386;8.688;2024-01-16T06:30:38;18.15;;;7.53;;
24216;SDS011;12356;49.386;8.688;2024-01-16T06:33:08;17.90;;;7.40;;
24216;SDS011;12356;49.386;8.688;2024-01-16T06:35:39;15.10;;;7.72;;
24216;SDS011;12356;49.386;8.688;2024-01-16T06:38:10;17.40;;;8.23;;
24216;SDS011;12356;49.386;8.688;2024-01-16T06:40:40;15.95;;;7.55;;
24216;SDS011;12356;49.386;8.688;2024-01-16T06:43:11;16.52;;;7.72;;
24216;SDS011;12356;49.386;8.688;2024-01-16T06:45:45;16.75;;;8.00;;
24216;SDS011;12356;49.386;8.688;2024-01-16T06:48:16;17.85;;;8.05;;
24216;SDS011;12356;49.386;8.688;2024-01-16T06:50:46;17.48;;;7.80;;
24216;SDS011;12356;49.386;8.688;2024-01-16T06:53:17;16.23;;;7.82;;
24216;SDS011;12356;49.386;8.688;2024-01-16T06:55:48;17.48;;;8.18;;
24216;SDS011;12356;49.386;8.688;2024-01-16T06:58:18;16.52;;;7.72;;
24216;SDS011;12356;49.386;8.688;2024-01-16T07:00:49;18.30;;;8.50;;
24216;SDS011;12356;49.386;8.688;2024-01-16T07:03:20;16.15;;;8.15;;
24216;SDS011;12356;49.386;8.688;2024-01-16T07:05:50;15.93;;;8.38;;
24216;SDS011;12356;49.386;8.688;2024-01-16T07:08:21;19.48;;;8.55;;
24216;SDS011;12356;49.386;8.688;2024-01-16T07:10:51;17.75;;;8.45;;
24216;SDS011;12356;49.386;8.688;2024-01-16T07:13:22;17.42;;;7.70;;
24216;SDS011;12356;49.386;8.688;2024-01-16T07:15:53;16.83;;;8.02;;
24216;SDS011;12356;49.386;8.688;2024-01-16T07:18:24;15.40;;;7.60;;
24216;SDS011;12356;49.386;8.688;2024-01-16T07:20:54;16.45;;;7.72;;
24216;SDS011;12356;49.386;8.688;2024-01-16T07:23:25;17.63;;;7.78;;
24216;SDS011;12356;49.386;8.688;2024-01-16T07:25:55;16.02;;;7.95;;
24216;SDS011;12356;49.386;8.688;2024-01-16T07:28:26;16.13;;;7.95;;
24216;SDS011;12356;49.386;8.688;2024-01-16T07:30:57;17.38;;;7.65;;
24216;SDS011;12356;49.386;8.688;2024-01-16T07:33:27;18.40;;;7.93;;
24216;SDS011;12356;49.386;8.688;2024-01-16T07:35:58;20.30;;;8.25;;
24216;SDS011;12356;49.386;8.688;2024-01-16T07:38:28;17.95;;;8.50;;
24216;SDS011;12356;49.386;8.688;2024-01-16T07:40:59;19.10;;;8.40;;
24216;SDS011;12356;49.386;8.688;2024-01-16T07:43:29;17.90;;;8.73;;
24216;SDS011;12356;49.386;8.688;2024-01-16T07:46:00;16.23;;;8.20;;
24216;SDS011;12356;49.386;8.688;2024-01-16T07:48:30;17.63;;;8.20;;
24216;SDS011;12356;49.386;8.688;2024-01-16T07:51:01;19.13;;;8.77;;
24216;SDS011;12356;49.386;8.688;2024-01-16T07:53:32;17.45;;;8.27;;
24216;SDS011;12356;49.386;8.688;2024-01-16T07:56:02;19.23;;;8.80;;
24216;SDS011;12356;49.386;8.688;2024-01-16T07:58:33;17.30;;;8.68;;
24216;SDS011;12356;49.386;8.688;2024-01-16T08:01:03;17.70;;;8.38;;
24216;SDS011;12356;49.386;8.688;2024-01-16T08:03:37;20.23;;;8.10;;
24216;SDS011;12356;49.386;8.688;2024-01-16T08:06:08;18.70;;;8.47;;
24216;SDS011;12356;49.386;8.688;2024-01-16T08:08:39;18.42;;;8.05;;
24216;SDS011;12356;49.386;8.688;2024-01-16T08:11:09;18.63;;;8.57;;
24216;SDS011;12356;49.386;8.688;2024-01-16T08:13:40;18.40;;;8.43;;
24216;SDS011;12356;49.386;8.688;2024-01-16T08:16:11;19.67;;;8.43;;
24216;SDS011;12356;49.386;8.688;2024-01-16T08:18:41;16.13;;;8.50;;
24216;SDS011;12356;49.386;8.688;2024-01-16T08:21:12;18.35;;;8.48;;
24216;SDS011;12356;49.386;8.688;2024-01-16T08:23:42;18.98;;;8.80;;
24216;SDS011;12356;49.386;8.688;2024-01-16T08:26:13;21.00;;;9.10;;
24216;SDS011;12356;49.386;8.688;2024-01-16T08:28:43;19.80;;;8.95;;
24216;SDS011;12356;49.386;8.688;2024-01-16T08:31:16;15.75;;;8.40;;
24216;SDS011;12356;49.386;8.688;2024-01-16T08:33:48;18.35;;;8.90;;
24216;SDS011;12356;49.386;8.688;2024-01-16T08:36:19;20.70;;;9.00;;
24216;SDS011;12356;49.386;8.688;2024-01-16T08:38:49;18.50;;;8.68;;
24216;SDS011;12356;49.386;8.688;2024-01-16T08:41:20;18.63;;;9.25;;
24216;SDS011;12356;49.386;8.688;2024-01-16T08:43:50;18.73;;;8.80;;
24216;SDS011;12356;49.386;8.688;2024-01-16T08:46:21;18.17;;;8.82;;
24216;SDS011;12356;49.386;8.688;2024-01-16T08:48:52;20.48;;;9.00;;
24216;SDS011;12356;49.386;8.688;2024-01-16T08:51:24;21.02;;;9.18;;
24216;SDS011;12356;49.386;8.688;2024-01-16T08:53:56;22.23;;;9.32;;
24216;SDS011;12356;49.386;8.688;2024-01-16T08:56:26;19.13;;;9.27;;
24216;SDS011;12356;49.386;8.688;2024-01-16T08:58:57;21.10;;;9.60;;
24216;SDS011;12356;49.386;8.688;2024-01-16T09:01:27;21.25;;;9.48;;
24216;SDS011;12356;49.386;8.688;2024-01-16T09:03:58;17.70;;;8.80;;
24216;SDS011;12356;49.386;8.688;2024-01-16T09:06:29;21.45;;;9.45;;
24216;SDS011;12356;49.386;8.688;2024-01-16T09:08:59;18.92;;;9.25;;
24216;SDS011;12356;49.386;8.688;2024-01-16T09:11:30;18.98;;;9.07;;
24216;SDS011;12356;49.386;8.688;2024-01-16T09:14:02;18.40;;;9.20;;
24216;SDS011;12356;49.386;8.688;2024-01-16T09:16:32;19.98;;;9.20;;
24216;SDS011;12356;49.386;8.688;2024-01-16T09:19:03;19.83;;;9.52;;
24216;SDS011;12356;49.386;8.688;2024-01-16T09:21:33;21.27;;;9.57;;
24216;SDS011;12356;49.386;8.688;2024-01-16T09:24:04;20.33;;;9.63;;
24216;SDS011;12356;49.386;8.688;2024-01-16T09:26:35;22.38;;;10.20;;
24216;SDS011;12356;49.386;8.688;2024-01-16T09:29:07;19.80;;;9.93;;
24216;SDS011;12356;49.386;8.688;2024-01-16T09:31:39;24.20;;;10.18;;
24216;SDS011;12356;49.386;8.688;2024-01-16T09:34:10;19.75;;;9.80;;
24216;SDS011;12356;49.386;8.688;2024-01-16T09:36:43;21.42;;;10.20;;
24216;SDS011;12356;49.386;8.688;2024-01-16T09:39:14;19.15;;;9.25;;
24216;SDS011;12356;49.386;8.688;2024-01-16T09:41:44;20.10;;;9.50;;
24216;SDS011;12356;49.386;8.688;2024-01-16T09:44:15;20.08;;;9.73;;
24216;SDS011;12356;49.386;8.688;2024-01-16T09:46:45;23.15;;;10.25;;
24216;SDS011;12356;49.386;8.688;2024-01-16T09:51:49;21.98;;;9.75;;
24216;SDS011;12356;49.386;8.688;2024-01-16T09:54:19;21.60;;;9.82;;
24216;SDS011;12356;49.386;8.688;2024-01-16T09:56:51;20.52;;;9.05;;
24216;SDS011;12356;49.386;8.688;2024-01-16T09:59:24;23.60;;;10.20;;
24216;SDS011;12356;49.386;8.688;2024-01-16T10:01:56;21.92;;;9.70;;
24216;SDS011;12356;49.386;8.688;2024-01-16T10:04:28;21.98;;;10.27;;
24216;SDS011;12356;49.386;8.688;2024-01-16T10:06:58;22.67;;;9.80;;
24216;SDS011;12356;49.386;8.688;2024-01-16T10:09:31;21.80;;;10.05;;
24216;SDS011;12356;49.386;8.688;2024-01-16T10:12:02;22.13;;;9.88;;
24216;SDS011;12356;49.386;8.688;2024-01-16T10:14:33;22.05;;;9.98;;
24216;SDS011;12356;49.386;8.688;2024-01-16T10:17:04;22.90;;;10.30;;
24216;SDS011;12356;49.386;8.688;2024-01-16T10:19:48;26.48;;;9.88;;
24216;SDS011;12356;49.386;8.688;2024-01-16T10:22:21;18.52;;;9.45;;
24216;SDS011;12356;49.386;8.688;2024-01-16T10:25:07;21.40;;;10.07;;
24216;SDS011;12356;49.386;8.688;2024-01-16T10:27:39;23.02;;;10.35;;
24216;SDS011;12356;49.386;8.688;2024-01-16T10:30:10;18.80;;;9.80;;
24216;SDS011;12356;49.386;8.688;2024-01-16T10:32:41;20.35;;;10.02;;
24216;SDS011;12356;49.386;8.688;2024-01-16T10:35:13;23.67;;;10.10;;
24216;SDS011;12356;49.386;8.688;2024-01-16T10:37:45;21.63;;;10.02;;
24216;SDS011;12356;49.386;8.688;2024-01-16T10:40:18;20.67;;;10.18;;
24216;SDS011;12356;49.386;8.688;2024-01-16T10:45:28;22.52;;;9.93;;
24216;SDS011;12356;49.386;8.688;2024-01-16T10:50:37;21.33;;;10.00;;
24216;SDS011;12356;49.386;8.688;2024-01-16T10:53:08;22.38;;;10.63;;
24216;SDS011;12356;49.386;8.688;2024-01-16T10:58:24;20.17;;;9.57;;
24216;SDS011;12356;49.386;8.688;2024-01-16T11:01:02;20.30;;;9.43;;
24216;SDS011;12356;49.386;8.688;2024-01-16T11:03:38;21.10;;;9.45;;
24216;SDS011;12356;49.386;8.688;2024-01-16T11:06:10;19.98;;;9.68;;
24216;SDS011;12356;49.386;8.688;2024-01-16T11:08:42;21.02;;;10.30;;
24216;SDS011;12356;49.386;8.688;2024-01-16T11:11:15;18.77;;;9.48;;
24216;SDS011;12356;49.386;8.688;2024-01-16T11:13:46;18.90;;;9.60;;
24216;SDS011;12356;49.386;8.688;2024-01-16T11:16:17;25.02;;;10.32;;
24216;SDS011;12356;49.386;8.688;2024-01-16T11:18:49;19.52;;;9.10;;
24216;SDS011;12356;49.386;8.688;2024-01-16T11:21:20;21.40;;;9.63;;
24216;SDS011;12356;49.386;8.688;2024-01-16T11:23:51;20.33;;;9.35;;
24216;SDS011;12356;49.386;8.688;2024-01-16T11:26:31;21.40;;;9.98;;
24216;SDS011;12356;49.386;8.688;2024-01-16T11:32:12;20.13;;;10.10;;
24216;SDS011;12356;49.386;8.688;2024-01-16T11:35:03;18.92;;;9.23;;
24216;SDS011;12356;49.386;8.688;2024-01-16T11:37:35;20.27;;;9.60;;
24216;SDS011;12356;49.386;8.688;2024-01-16T11:42:54;23.38;;;9.52;;
24216;SDS011;12356;49.386;8.688;2024-01-16T11:48:12;21.65;;;10.07;;
24216;SDS011;12356;49.386;8.688;2024-01-16T11:50:44;19.15;;;9.35;;
24216;SDS011;12356;49.386;8.688;2024-01-16T11:56:18;19.50;;;9.70;;
24216;SDS011;12356;49.386;8.688;2024-01-16T12:05:19;20.02;;;9.73;;
24216;SDS011;12356;49.386;8.688;2024-01-16T12:07:51;19.60;;;9.70;;
24216;SDS011;12356;49.386;8.688;2024-01-16T12:10:24;18.88;;;9.07;;
24216;SDS011;12356;49.386;8.688;2024-01-16T12:12:58;19.35;;;9.02;;
24216;SDS011;12356;49.386;8.688;2024-01-16T12:15:29;22.55;;;9.65;;
24216;SDS011;12356;49.386;8.688;2024-01-16T12:18:00;20.83;;;9.85;;
24216;SDS011;12356;49.386;8.688;2024-01-16T12:20:33;18.38;;;9.45;;
24216;SDS011;12356;49.386;8.688;2024-01-16T12:23:07;19.70;;;9.65;;
24216;SDS011;12356;49.386;8.688;2024-01-16T12:25:37;20.90;;;9.93;;
24216;SDS011;12356;49.386;8.688;2024-01-16T12:28:08;19.33;;;9.20;;
24216;SDS011;12356;49.386;8.688;2024-01-16T12:30:48;20.75;;;9.20;;
24216;SDS011;12356;49.386;8.688;2024-01-16T12:33:21;17.75;;;9.27;;
24216;SDS011;12356;49.386;8.688;2024-01-16T12:36:00;20.10;;;9.35;;
24216;SDS011;12356;49.386;8.688;2024-01-16T12:38:32;19.05;;;9.38;;
24216;SDS011;12356;49.386;8.688;2024-01-16T12:41:05;24.95;;;9.65;;
24216;SDS011;12356;49.386;8.688;2024-01-16T12:43:39;21.83;;;9.75;;
24216;SDS011;12356;49.386;8.688;2024-01-16T12:46:11;18.25;;;8.82;;
24216;SDS011;12356;49.386;8.688;2024-01-16T12:48:41;19.52;;;9.32;;
24216;SDS011;12356;49.386;8.688;2024-01-16T12:51:13;23.50;;;9.00;;
24216;SDS011;12356;49.386;8.688;2024-01-16T12:53:52;17.63;;;8.60;;
24216;SDS011;12356;49.386;8.688;2024-01-16T12:56:22;18.70;;;8.65;;
24216;SDS011;12356;49.386;8.688;2024-01-16T12:58:53;17.98;;;8.75;;
24216;SDS011;12356;49.386;8.688;2024-01-16T13:01:25;17.95;;;8.55;;
24216;SDS011;12356;49.386;8.688;2024-01-16T13:06:29;20.98;;;8.27;;
24216;SDS011;12356;49.386;8.688;2024-01-16T13:09:07;15.32;;;8.00;;
24216;SDS011;12356;49.386;8.688;2024-01-16T13:14:16;17.70;;;8.18;;
24216;SDS011;12356;49.386;8.688;2024-01-16T13:16:50;19.15;;;8.25;;
24216;SDS011;12356;49.386;8.688;2024-01-16T13:19:22;17.48;;;8.38;;
24216;SDS011;12356;49.386;8.688;2024-01-16T13:21:53;17.08;;;8.07;;
24216;SDS011;12356;49.386;8.688;2024-01-16T13:24:24;17.42;;;8.30;;
24216;SDS011;12356;49.386;8.688;2024-01-16T13:26:54;17.08;;;8.20;;
24216;SDS011;12356;49.386;8.688;2024-01-16T13:29:25;14.77;;;7.57;;
24216;SDS011;12356;49.386;8.688;2024-01-16T13:31:56;17.85;;;7.78;;
24216;SDS011;12356;49.386;8.688;2024-01-16T13:34:26;16.80;;;7.60;;
24216;SDS011;12356;49.386;8.688;2024-01-16T13:36:58;15.82;;;7.38;;
24216;SDS011;12356;49.386;8.688;2024-01-16T13:39:30;17.88;;;7.60;;
24216;SDS011;12356;49.386;8.688;2024-01-16T13:42:06;16.88;;;8.02;;
24216;SDS011;12356;49.386;8.688;2024-01-16T13:44:36;15.75;;;7.53;;
24216;SDS011;12356;49.386;8.688;2024-01-16T13:47:07;24.13;;;8.10;;
24216;SDS011;12356;49.386;8.688;2024-01-16T13:49:38;18.25;;;7.80;;
24216;SDS011;12356;49.386;8.688;2024-01-16T13:52:10;17.50;;;7.72;;
24216;SDS011;12356;49.386;8.688;2024-01-16T13:54:41;17.33;;;7.07;;
24216;SDS011;12356;49.386;8.688;2024-01-16T13:57:12;16.25;;;7.20;;
24216;SDS011;12356;49.386;8.688;2024-01-16T13:59:42;17.55;;;7.28;;
24216;SDS011;12356;49.386;8.688;2024-01-16T14:02:13;16.60;;;6.68;;
24216;SDS011;12356;49.386;8.688;2024-01-16T14:04:43;14.88;;;6.70;;
24216;SDS011;12356;49.386;8.688;2024-01-16T14:07:14;13.65;;;6.70;;
24216;SDS011;12356;49.386;8.688;2024-01-16T14:09:46;13.93;;;6.57;;
24216;SDS011;12356;49.386;8.688;2024-01-16T14:12:16;16.70;;;6.72;;
24216;SDS011;12356;49.386;8.688;2024-01-16T14:14:48;17.40;;;6.20;;
24216;SDS011;12356;49.386;8.688;2024-01-16T14:17:19;13.15;;;6.25;;
24216;SDS011;12356;49.386;8.688;2024-01-16T14:19:50;16.42;;;6.50;;
24216;SDS011;12356;49.386;8.688;2024-01-16T14:22:20;13.88;;;6.05;;
24216;SDS011;12356;49.386;8.688;2024-01-16T14:24:51;16.15;;;5.93;;
24216;SDS011;12356;49.386;8.688;2024-01-16T14:27:21;16.35;;;6.20;;
24216;SDS011;12356;49.386;8.688;2024-01-16T14:29:52;16.45;;;6.10;;
24216;SDS011;12356;49.386;8.688;2024-01-16T14:32:22;12.55;;;6.13;;
24216;SDS011;12356;49.386;8.688;2024-01-16T14:34:53;13.05;;;6.15;;
24216;SDS011;12356;49.386;8.688;2024-01-16T14:37:23;15.02;;;6.00;;
24216;SDS011;12356;49.386;8.688;2024-01-16T14:39:54;13.73;;;6.63;;
24216;SDS011;12356;49.386;8.688;2024-01-16T14:42:24;13.98;;;5.80;;
24216;SDS011;12356;49.386;8.688;2024-01-16T14:44:55;14.00;;;5.97;;
24216;SDS011;12356;49.386;8.688;2024-01-16T14:47:26;16.35;;;6.53;;
24216;SDS011;12356;49.386;8.688;2024-01-16T14:49:56;15.65;;;6.22;;
24216;SDS011;12356;49.386;8.688;2024-01-16T14:52:27;15.00;;;6.70;;
24216;SDS011;12356;49.386;8.688;2024-01-16T14:54:58;12.25;;;5.65;;
24216;SDS011;12356;49.386;8.688;2024-01-16T14:57:31;12.35;;;5.60;;
24216;SDS011;12356;49.386;8.688;2024-01-16T15:00:02;14.25;;;5.85;;
24216;SDS011;12356;49.386;8.688;2024-01-16T15:02:32;15.23;;;5.80;;
24216;SDS011;12356;49.386;8.688;2024-01-16T15:05:03;16.17;;;5.65;;
24216;SDS011;12356;49.386;8.688;2024-01-16T15:07:35;11.07;;;5.68;;
24216;SDS011;12356;49.386;8.688;2024-01-16T15:10:07;12.27;;;6.10;;
24216;SDS011;12356;49.386;8.688;2024-01-16T15:12:41;12.95;;;5.68;;
24216;SDS011;12356;49.386;8.688;2024-01-16T15:15:13;13.07;;;5.90;;
24216;SDS011;12356;49.386;8.688;2024-01-16T15:17:45;13.00;;;5.80;;
24216;SDS011;12356;49.386;8.688;2024-01-16T15:20:15;9.70;;;5.38;;
24216;SDS011;12356;49.386;8.688;2024-01-16T15:22:46;15.98;;;5.70;;
24216;SDS011;12356;49.386;8.688;2024-01-16T15:25:20;12.23;;;5.63;;
24216;SDS011;12356;49.386;8.688;2024-01-16T15:27:52;11.82;;;5.63;;
24216;SDS011;12356;49.386;8.688;2024-01-16T15:30:23;14.38;;;5.85;;
24216;SDS011;12356;49.386;8.688;2024-01-16T15:33:01;12.63;;;5.60;;